Time;durP1;ratioP1;P1;durP2;ratioP2;P2;SDS_P1;SDS_P2;PMS_P1;PMS_P2;Temp;Humidity;BMP_temperature;BMP_pressure;BME280_temperature;BME280_humidity;BME280_pressure;Samples;Min_cycle;Max_cycle;Signal;HPM_P1;HPM_P2
2022/04/30 00:00:09;;;;;;;6.32;3.55;;;12.90;91.80;;;;;;5046093;28;20178;-74
2022/04/30 00:02:35;;;;;;;8.73;3.88;;;12.90;91.50;;;;;;5045065;28;20049;-75
2022/04/30 00:05:01;;;;;;;6.93;3.97;;;13.10;91.10;;;;;;5050767;28;20025;-75
2022/04/30 00:07:27;;;;;;;8.88;4.28;;;13.00;91.40;;;;;;5046169;28;20047;-74
2022/04/30 00:09:52;;;;;;;5.95;3.70;;;13.00;91.20;;;;;;5049852;28;20116;-75
2022/04/30 00:12:18;;;;;;;7.47;4.03;;;13.10;91.10;;;;;;5048518;28;20025;-76
2022/04/30 00:14:46;;;;;;;8.40;3.80;;;13.00;91.10;;;;;;5050552;28;20035;-74
2022/04/30 00:17:13;;;;;;;8.10;3.80;;;13.10;90.90;;;;;;5040597;28;20351;-75
2022/04/30 00:19:39;;;;;;;6.30;4.05;;;13.20;91.00;;;;;;5049090;28;20379;-76
2022/04/30 00:22:05;;;;;;;6.45;4.10;;;13.20;91.10;;;;;;5035189;28;20041;-74
2022/04/30 00:24:31;;;;;;;6.43;3.95;;;13.30;90.90;;;;;;5044601;28;20029;-75
2022/04/30 00:26:59;;;;;;;8.43;4.82;;;13.10;90.90;;;;;;5049219;28;20036;-75
2022/04/30 00:29:29;;;;;;;7.32;3.35;;;13.10;91.00;;;;;;5050879;28;20037;-74
2022/04/30 00:31:56;;;;;;;7.38;3.22;;;13.00;91.10;;;;;;5046045;28;20152;-75
2022/04/30 00:34:22;;;;;;;6.93;3.25;;;13.00;91.00;;;;;;5044991;28;20043;-74
2022/04/30 00:36:47;;;;;;;5.93;4.03;;;13.10;91.20;;;;;;5048878;28;20028;-74
2022/04/30 00:39:13;;;;;;;6.25;3.55;;;13.10;91.10;;;;;;5050788;28;20036;-75
2022/04/30 00:41:47;;;;;;;5.70;3.22;;;13.30;90.80;;;;;;5054141;28;20529;-75
2022/04/30 00:44:18;;;;;;;7.57;3.90;;;13.30;90.80;;;;;;5046975;28;20124;-75
2022/04/30 00:46:44;;;;;;;5.93;3.58;;;13.10;91.00;;;;;;5045126;28;20087;-75
2022/04/30 00:49:10;;;;;;;7.03;3.00;;;13.10;91.30;;;;;;5047792;28;20581;-75
2022/04/30 00:51:38;;;;;;;7.03;3.35;;;13.10;91.30;;;;;;5047494;28;20025;-76
2022/04/30 00:54:05;;;;;;;7.97;2.97;;;13.00;91.40;;;;;;5043524;28;20037;-75
2022/04/30 00:56:57;;;;;;;6.78;3.55;;;13.10;91.20;;;;;;5047403;28;20087;-74
2022/04/30 00:59:24;;;;;;;7.25;3.85;;;13.10;91.00;;;;;;5045034;28;20127;-75
2022/04/30 01:01:50;;;;;;;8.75;3.53;;;13.20;91.00;;;;;;5046999;28;20138;-74
2022/04/30 01:04:18;;;;;;;6.90;3.58;;;13.00;91.70;;;;;;5040786;28;20063;-75
2022/04/30 01:07:02;;;;;;;7.68;3.58;;;13.00;91.90;;;;;;5046056;28;20035;-75
2022/04/30 01:09:29;;;;;;;7.47;3.85;;;13.00;92.00;;;;;;5045468;28;20029;-74
2022/04/30 01:11:57;;;;;;;5.53;3.20;;;12.90;92.30;;;;;;5050131;28;20033;-75
2022/04/30 01:14:26;;;;;;;4.85;2.95;;;12.80;91.90;;;;;;5035340;28;20087;-75
2022/04/30 01:16:53;;;;;;;5.57;2.97;;;13.00;91.10;;;;;;5048368;28;20059;-75
2022/04/30 01:19:20;;;;;;;6.97;3.17;;;13.00;91.00;;;;;;5048246;28;20527;-75
2022/04/30 01:21:52;;;;;;;7.65;3.00;;;13.00;91.20;;;;;;5047051;28;20102;-75
2022/04/30 01:24:22;;;;;;;6.22;3.70;;;13.10;91.20;;;;;;5041999;28;20478;-74
2022/04/30 01:26:52;;;;;;;8.45;3.35;;;13.10;91.10;;;;;;5053807;28;20064;-75
2022/04/30 01:29:23;;;;;;;5.45;2.97;;;13.20;91.00;;;;;;5053118;28;20475;-75
2022/04/30 01:37:26;;;;;;;8.23;3.25;;;13.20;91.10;;;;;;5052998;28;20079;-75
2022/04/30 01:39:59;;;;;;;8.48;3.38;;;13.20;90.90;;;;;;5042719;28;20107;-74
2022/04/30 01:42:29;;;;;;;6.18;4.10;;;13.20;91.20;;;;;;5052057;28;20044;-74
2022/04/30 01:44:55;;;;;;;6.18;3.75;;;13.20;91.70;;;;;;5045189;28;20110;-75
2022/04/30 01:47:23;;;;;;;5.07;2.85;;;13.10;92.20;;;;;;5052628;28;20037;-75
2022/04/30 01:49:49;;;;;;;5.47;2.92;;;13.20;93.00;;;;;;5049160;28;20029;-75
2022/04/30 01:52:15;;;;;;;6.80;3.38;;;12.90;92.30;;;;;;5054039;28;20052;-75
2022/04/30 01:54:42;;;;;;;5.35;2.60;;;12.90;91.80;;;;;;5038562;28;20040;-75
2022/04/30 01:57:08;;;;;;;5.45;2.45;;;13.00;92.10;;;;;;5047826;28;20058;-75
2022/04/30 01:59:34;;;;;;;7.28;2.72;;;12.90;92.60;;;;;;5049352;28;20132;-76
2022/04/30 02:02:02;;;;;;;5.55;2.53;;;12.80;92.70;;;;;;5050703;28;20045;-75
2022/04/30 02:04:28;;;;;;;5.10;2.92;;;12.80;92.80;;;;;;5040506;28;20502;-74
2022/04/30 02:06:55;;;;;;;5.25;2.70;;;12.90;91.70;;;;;;5055496;28;20034;-75
2022/04/30 02:09:22;;;;;;;5.55;2.97;;;13.10;91.40;;;;;;5042761;28;20108;-75
2022/04/30 02:11:48;;;;;;;7.25;3.00;;;13.20;91.20;;;;;;5051683;28;20025;-75
2022/04/30 02:14:15;;;;;;;5.30;3.00;;;13.10;91.50;;;;;;5043678;28;20029;-75
2022/04/30 02:16:42;;;;;;;5.40;2.60;;;13.20;91.20;;;;;;5050524;28;20392;-75
2022/04/30 02:19:08;;;;;;;6.57;3.55;;;13.10;91.30;;;;;;5053494;28;20086;-75
2022/04/30 02:21:35;;;;;;;6.40;3.10;;;13.20;91.20;;;;;;5051045;28;20486;-76
2022/04/30 02:24:02;;;;;;;6.63;3.05;;;13.30;90.70;;;;;;5046676;28;20033;-75
2022/04/30 02:26:28;;;;;;;8.02;3.50;;;13.10;92.00;;;;;;5049467;28;20029;-75
2022/04/30 02:28:55;;;;;;;6.70;3.28;;;13.00;92.70;;;;;;5051431;28;20069;-75
2022/04/30 02:31:26;;;;;;;4.82;2.92;;;12.90;92.80;;;;;;5051721;28;20049;-75
2022/04/30 02:33:56;;;;;;;5.85;3.33;;;12.90;92.70;;;;;;5036447;28;20033;-75
2022/04/30 02:36:26;;;;;;;6.70;3.53;;;12.80;92.90;;;;;;5053167;28;20496;-75
2022/04/30 02:38:55;;;;;;;7.85;3.50;;;12.90;93.00;;;;;;5053954;28;20048;-75
2022/04/30 02:41:23;;;;;;;6.13;3.03;;;12.80;92.90;;;;;;5052569;28;20040;-75
2022/04/30 02:43:51;;;;;;;6.30;3.90;;;12.90;93.20;;;;;;5046962;28;20032;-75
2022/04/30 02:46:20;;;;;;;8.98;4.20;;;12.90;93.10;;;;;;5052291;28;20118;-74
2022/04/30 02:48:46;;;;;;;4.57;3.10;;;12.80;92.40;;;;;;5047001;28;20074;-75
2022/04/30 02:51:15;;;;;;;7.50;3.72;;;12.90;92.20;;;;;;5050705;28;20654;-75
2022/04/30 02:53:42;;;;;;;8.32;3.33;;;12.90;92.90;;;;;;5040916;28;20051;-75
2022/04/30 02:56:11;;;;;;;5.75;3.35;;;12.80;93.00;;;;;;5051873;28;20036;-75
2022/04/30 03:01:22;;;;;;;7.07;4.55;;;12.90;92.30;;;;;;5051609;28;20129;-73
2022/04/30 03:03:48;;;;;;;7.13;3.65;;;12.70;92.30;;;;;;5045419;28;20457;-75
2022/04/30 03:06:16;;;;;;;6.45;3.10;;;12.60;92.40;;;;;;5025151;28;20033;-75
2022/04/30 03:08:49;;;;;;;5.20;2.80;;;12.50;92.90;;;;;;5042989;28;20174;-78
2022/04/30 03:11:19;;;;;;;5.15;3.20;;;12.60;92.70;;;;;;5043170;28;20029;-75
2022/04/30 03:13:45;;;;;;;5.57;3.15;;;12.60;92.60;;;;;;5033020;28;20134;-74
2022/04/30 03:21:44;;;;;;;4.70;2.78;;;12.50;92.70;;;;;;5028942;28;20509;-75
2022/04/30 03:24:18;;;;;;;4.93;2.97;;;12.40;92.50;;;;;;5038233;28;20029;-74
2022/04/30 03:26:48;;;;;;;6.55;3.42;;;12.40;92.50;;;;;;5045251;28;20036;-74
2022/04/30 03:29:15;;;;;;;4.68;2.88;;;12.40;92.50;;;;;;5047785;28;20032;-74
2022/04/30 03:31:41;;;;;;;4.90;2.63;;;12.50;92.40;;;;;;5042206;28;20367;-74
2022/04/30 03:34:08;;;;;;;5.85;2.88;;;12.60;92.70;;;;;;5043654;28;20040;-74
2022/04/30 03:36:35;;;;;;;6.28;3.25;;;12.60;92.70;;;;;;5041468;28;20144;-74
2022/04/30 03:39:01;;;;;;;7.60;3.65;;;12.60;92.60;;;;;;5043262;28;20033;-73
2022/04/30 03:41:27;;;;;;;6.47;3.42;;;12.60;93.20;;;;;;5046986;28;20402;-74
2022/04/30 03:43:53;;;;;;;4.75;2.72;;;12.40;93.50;;;;;;5045549;28;20037;-74
2022/04/30 03:46:18;;;;;;;7.13;4.03;;;12.30;93.40;;;;;;5040362;28;20133;-74
2022/04/30 03:48:44;;;;;;;7.50;3.40;;;12.30;93.60;;;;;;5047607;28;20029;-75
2022/04/30 03:51:10;;;;;;;6.68;3.03;;;12.40;93.80;;;;;;5043230;28;20029;-74
2022/04/30 03:53:36;;;;;;;5.20;2.72;;;12.30;93.70;;;;;;5046872;28;20538;-75
2022/04/30 03:56:02;;;;;;;7.25;3.25;;;12.40;94.00;;;;;;5040810;28;20040;-74
2022/04/30 03:58:28;;;;;;;9.30;4.28;;;12.40;93.70;;;;;;5044879;28;20104;-74
2022/04/30 04:00:54;;;;;;;6.28;3.13;;;12.30;93.60;;;;;;5040542;28;20041;-73
2022/04/30 04:03:21;;;;;;;6.30;3.17;;;12.20;93.40;;;;;;5040624;28;20084;-76
2022/04/30 04:05:48;;;;;;;5.03;2.55;;;12.10;93.70;;;;;;5042665;28;20936;-74
2022/04/30 04:08:16;;;;;;;6.32;3.15;;;12.20;93.60;;;;;;5043616;28;20036;-75
2022/04/30 04:10:41;;;;;;;6.13;3.05;;;12.30;93.20;;;;;;5039940;28;20044;-74
2022/04/30 04:18:36;;;;;;;7.18;3.13;;;12.50;93.00;;;;;;5042748;28;20506;-74
2022/04/30 04:21:02;;;;;;;5.50;3.08;;;12.50;92.90;;;;;;5035501;28;20030;-75
2022/04/30 04:23:28;;;;;;;7.43;3.72;;;12.60;92.70;;;;;;5049577;28;20045;-74
2022/04/30 04:26:00;;;;;;;7.65;3.95;;;12.70;92.90;;;;;;5037182;28;20144;-74
2022/04/30 04:28:29;;;;;;;6.65;3.17;;;12.60;92.90;;;;;;5038262;28;20494;-74
2022/04/30 04:30:57;;;;;;;11.25;3.28;;;12.60;92.50;;;;;;5039404;28;20733;-75
2022/04/30 04:33:22;;;;;;;5.80;3.55;;;12.60;92.90;;;;;;5041879;28;20044;-74
2022/04/30 04:35:48;;;;;;;7.72;3.85;;;12.60;92.90;;;;;;5039938;28;20028;-75
2022/04/30 04:38:14;;;;;;;8.18;3.58;;;12.50;94.00;;;;;;5051272;28;20054;-74
2022/04/30 04:40:40;;;;;;;8.25;4.00;;;12.40;94.20;;;;;;5052026;28;20060;-74
2022/04/30 04:43:06;;;;;;;7.95;3.78;;;12.30;94.70;;;;;;5059893;28;20115;-74
2022/04/30 04:45:31;;;;;;;5.43;3.05;;;12.40;94.50;;;;;;5056103;28;20111;-74
2022/04/30 04:47:57;;;;;;;6.65;4.05;;;12.50;94.40;;;;;;5028347;28;20041;-74
2022/04/30 04:50:23;;;;;;;17.65;8.57;;;12.50;94.30;;;;;;5040315;28;20033;-75
2022/04/30 04:52:49;;;;;;;8.00;4.65;;;12.60;93.90;;;;;;5042551;28;20045;-75
2022/04/30 04:55:18;;;;;;;10.30;5.05;;;12.60;93.90;;;;;;5041987;28;20036;-74
2022/04/30 04:57:43;;;;;;;17.00;8.32;;;12.60;93.90;;;;;;5031701;28;20103;-75
2022/04/30 05:00:10;;;;;;;6.35;4.13;;;12.70;94.10;;;;;;5042206;28;20537;-74
2022/04/30 05:02:36;;;;;;;5.82;3.80;;;12.80;94.30;;;;;;5041508;28;20048;-74
2022/04/30 05:05:03;;;;;;;8.52;3.58;;;12.60;93.50;;;;;;5039035;28;20463;-74
2022/04/30 05:07:29;;;;;;;8.48;4.10;;;12.60;93.50;;;;;;5034161;28;20052;-75
2022/04/30 05:09:54;;;;;;;8.93;4.32;;;12.60;94.20;;;;;;5041119;28;20111;-75
2022/04/30 05:12:20;;;;;;;6.90;3.72;;;12.70;95.30;;;;;;5034694;28;20455;-75
2022/04/30 05:14:48;;;;;;;9.13;3.90;;;12.60;94.90;;;;;;5034969;28;20140;-75
2022/04/30 05:17:14;;;;;;;6.82;3.63;;;12.60;94.50;;;;;;5042374;28;20775;-74
2022/04/30 05:19:40;;;;;;;7.38;3.92;;;12.60;94.60;;;;;;5040770;28;20044;-74
2022/04/30 05:22:05;;;;;;;5.88;3.83;;;12.50;94.20;;;;;;5039505;28;20475;-75
2022/04/30 05:24:32;;;;;;;7.30;3.95;;;12.70;94.50;;;;;;5036827;28;20034;-75
2022/04/30 05:26:58;;;;;;;5.47;3.20;;;12.80;94.60;;;;;;5041787;28;20216;-74
2022/04/30 05:29:23;;;;;;;5.82;3.30;;;12.50;94.70;;;;;;5041172;28;20108;-73
2022/04/30 05:31:49;;;;;;;9.65;3.83;;;12.50;94.50;;;;;;5039523;28;20116;-75
2022/04/30 05:34:15;;;;;;;8.70;4.38;;;12.60;94.70;;;;;;5039205;28;20049;-74
2022/04/30 05:36:40;;;;;;;7.93;3.45;;;12.50;95.00;;;;;;5041600;28;20066;-74
2022/04/30 05:39:06;;;;;;;11.02;5.40;;;12.80;94.40;;;;;;5031556;28;20060;-75
2022/04/30 05:41:32;;;;;;;7.28;4.47;;;12.80;94.30;;;;;;5040329;28;20083;-74
2022/04/30 05:43:57;;;;;;;6.78;4.25;;;12.80;94.40;;;;;;5040328;28;20033;-72
2022/04/30 05:46:23;;;;;;;7.35;3.90;;;12.80;94.20;;;;;;5039748;28;20047;-73
2022/04/30 05:48:49;;;;;;;6.65;4.15;;;12.60;94.50;;;;;;5040696;28;20033;-75
2022/04/30 05:51:15;;;;;;;6.38;3.47;;;12.80;95.10;;;;;;5038592;28;20483;-72
2022/04/30 05:53:41;;;;;;;8.55;4.05;;;12.80;94.30;;;;;;5039305;28;20021;-72
2022/04/30 05:56:07;;;;;;;6.90;4.35;;;12.90;94.20;;;;;;5039533;28;20127;-76
2022/04/30 05:58:33;;;;;;;8.13;3.80;;;13.20;94.30;;;;;;5030776;28;20103;-75
2022/04/30 06:00:58;;;;;;;27.58;14.55;;;13.40;94.50;;;;;;5026529;28;20069;-74
2022/04/30 06:03:24;;;;;;;27.20;14.32;;;13.50;93.80;;;;;;5022046;28;20144;-72
2022/04/30 06:05:50;;;;;;;14.90;6.45;;;13.70;93.50;;;;;;5018783;28;20068;-72
2022/04/30 06:08:15;;;;;;;8.73;4.60;;;13.60;93.90;;;;;;5034318;28;20369;-72
2022/04/30 06:10:41;;;;;;;5.60;4.00;;;13.60;95.30;;;;;;5043291;28;20448;-72
2022/04/30 06:13:07;;;;;;;7.78;4.38;;;13.50;95.60;;;;;;5038050;28;20025;-73
2022/04/30 06:15:32;;;;;;;6.30;3.80;;;13.50;96.10;;;;;;5044064;28;20040;-75
2022/04/30 06:17:58;;;;;;;6.80;4.15;;;13.70;95.70;;;;;;5040906;28;20025;-73
2022/04/30 06:20:24;;;;;;;7.63;4.07;;;13.80;96.00;;;;;;5045838;28;20110;-72
2022/04/30 06:22:49;;;;;;;12.07;4.47;;;13.70;95.10;;;;;;5043032;28;20041;-75
2022/04/30 06:25:15;;;;;;;10.38;4.68;;;13.70;94.50;;;;;;5052418;28;20120;-73
2022/04/30 06:27:41;;;;;;;6.82;3.80;;;13.70;94.50;;;;;;5059685;28;20033;-75
2022/04/30 06:30:09;;;;;;;5.82;4.13;;;13.70;94.30;;;;;;5038363;28;20566;-75
2022/04/30 06:32:35;;;;;;;7.07;4.13;;;13.80;94.40;;;;;;5037916;28;20031;-72
2022/04/30 06:35:02;;;;;;;7.38;3.80;;;13.90;93.80;;;;;;5045161;28;20028;-73
2022/04/30 06:37:28;;;;;;;13.55;4.40;;;14.00;93.00;;;;;;5038652;28;20107;-72
2022/04/30 06:39:54;;;;;;;5.93;3.72;;;14.30;92.70;;;;;;5044322;28;20107;-73
2022/04/30 06:42:19;;;;;;;6.75;4.47;;;14.50;92.40;;;;;;5034368;28;20038;-72
2022/04/30 06:44:45;;;;;;;6.60;3.55;;;14.70;92.50;;;;;;5042633;28;20108;-73
2022/04/30 06:47:11;;;;;;;6.78;4.25;;;14.80;92.10;;;;;;5035790;28;20483;-73
2022/04/30 06:49:36;;;;;;;5.88;3.90;;;15.10;92.10;;;;;;5040720;28;20051;-72
2022/04/30 06:52:03;;;;;;;9.10;5.38;;;15.30;91.10;;;;;;5041914;28;20044;-73
2022/04/30 06:57:16;;;;;;;11.48;6.85;;;16.00;92.90;;;;;;5042380;28;20044;-72
2022/04/30 06:59:42;;;;;;;11.35;5.97;;;16.10;92.80;;;;;;5039784;28;20043;-75
2022/04/30 07:02:23;;;;;;;8.63;4.72;;;16.20;92.60;;;;;;5042520;28;20497;-73
2022/04/30 07:04:52;;;;;;;9.18;4.57;;;15.60;92.30;;;;;;5034762;28;20036;-73
2022/04/30 07:07:21;;;;;;;6.65;4.50;;;15.60;92.60;;;;;;5042948;28;20087;-73
2022/04/30 07:09:48;;;;;;;18.50;9.98;;;16.30;92.20;;;;;;5040778;28;20104;-73
2022/04/30 07:12:17;;;;;;;9.40;4.90;;;17.30;90.50;;;;;;5043638;28;20090;-72
2022/04/30 07:14:44;;;;;;;12.35;4.15;;;17.10;90.30;;;;;;5032642;28;20032;-74
2022/04/30 07:17:12;;;;;;;6.57;4.25;;;16.70;90.20;;;;;;5047172;28;20052;-74
2022/04/30 07:19:38;;;;;;;13.63;6.68;;;16.40;90.70;;;;;;5036767;28;20414;-73
2022/04/30 07:22:04;;;;;;;11.60;6.32;;;18.30;88.70;;;;;;5026688;28;20727;-72
2022/04/30 07:24:33;;;;;;;17.10;8.98;;;17.70;87.80;;;;;;5049724;28;20089;-72
2022/04/30 07:26:59;;;;;;;12.25;5.70;;;17.10;88.30;;;;;;5041153;28;20032;-71
2022/04/30 07:29:25;;;;;;;7.53;4.00;;;17.40;87.90;;;;;;5043862;28;20028;-72
2022/04/30 07:31:50;;;;;;;8.88;3.78;;;17.40;86.50;;;;;;5047041;28;20115;-72
2022/04/30 07:34:16;;;;;;;7.35;4.20;;;17.00;88.20;;;;;;5034311;28;20112;-72
2022/04/30 07:36:42;;;;;;;14.68;7.00;;;16.50;88.00;;;;;;5044003;28;20033;-72
2022/04/30 07:39:08;;;;;;;11.90;6.78;;;16.60;90.20;;;;;;5037508;28;20029;-71
2022/04/30 07:41:33;;;;;;;19.80;9.20;;;16.70;90.60;;;;;;5048180;28;20048;-72
2022/04/30 07:43:59;;;;;;;7.80;3.97;;;16.70;90.70;;;;;;5043421;28;20036;-72
2022/04/30 07:46:25;;;;;;;25.10;9.70;;;16.40;90.60;;;;;;5038797;28;20105;-72
2022/04/30 07:48:51;;;;;;;20.67;11.02;;;16.40;90.90;;;;;;5040486;28;20041;-72
2022/04/30 07:51:23;;;;;;;6.28;4.07;;;16.50;90.60;;;;;;5043571;28;20039;-72
2022/04/30 07:53:49;;;;;;;8.00;3.83;;;16.50;90.70;;;;;;5038621;28;20148;-72
2022/04/30 07:56:15;;;;;;;6.38;4.10;;;16.40;91.10;;;;;;5039874;28;20048;-72
2022/04/30 07:58:41;;;;;;;6.25;3.78;;;16.30;91.30;;;;;;5031968;28;20029;-72
2022/04/30 08:01:07;;;;;;;7.95;3.95;;;16.20;92.10;;;;;;5020513;28;20400;-72
2022/04/30 08:03:33;;;;;;;8.50;4.47;;;16.30;91.70;;;;;;5041136;28;20064;-74
2022/04/30 08:05:59;;;;;;;13.05;5.80;;;16.40;91.40;;;;;;5029248;28;20467;-72
2022/04/30 08:08:25;;;;;;;9.60;5.72;;;16.50;91.30;;;;;;5025777;28;20037;-74
2022/04/30 08:10:51;;;;;;;13.70;7.28;;;16.80;91.10;;;;;;5038608;28;20471;-73
2022/04/30 08:13:16;;;;;;;7.53;4.32;;;16.90;90.10;;;;;;5041334;28;20964;-73
2022/04/30 08:15:43;;;;;;;6.60;3.53;;;17.20;89.40;;;;;;5031028;28;20480;-73
2022/04/30 08:18:11;;;;;;;6.70;3.33;;;17.20;88.50;;;;;;5038625;28;20110;-73
2022/04/30 08:20:38;;;;;;;8.30;4.05;;;17.50;89.10;;;;;;5037506;28;20395;-73
2022/04/30 08:23:06;;;;;;;5.30;3.05;;;19.20;88.00;;;;;;5035996;28;20045;-75
2022/04/30 08:25:33;;;;;;;4.95;2.90;;;19.80;84.20;;;;;;5039305;28;20423;-75
2022/04/30 08:27:59;;;;;;;8.18;4.03;;;19.10;87.10;;;;;;5038917;28;20116;-75
2022/04/30 08:30:25;;;;;;;7.90;3.53;;;19.20;87.40;;;;;;5039649;28;20032;-73
2022/04/30 08:32:51;;;;;;;5.60;3.20;;;18.90;86.60;;;;;;5032361;28;20074;-73
2022/04/30 08:35:16;;;;;;;22.40;7.70;;;18.80;88.60;;;;;;5042981;28;20033;-73
2022/04/30 08:37:42;;;;;;;15.30;4.95;;;18.40;89.60;;;;;;5029893;28;20025;-73
2022/04/30 08:40:08;;;;;;;7.72;3.67;;;18.00;89.00;;;;;;5032881;28;20037;-72
2022/04/30 08:42:34;;;;;;;5.03;3.20;;;17.80;90.00;;;;;;5033971;28;20040;-73
2022/04/30 08:45:06;;;;;;;8.75;3.65;;;17.70;90.20;;;;;;5035330;28;20029;-72
2022/04/30 08:47:37;;;;;;;8.48;3.60;;;17.90;90.00;;;;;;5037616;28;20029;-72
2022/04/30 08:50:06;;;;;;;6.60;3.53;;;17.90;89.80;;;;;;5035150;28;20043;-73
2022/04/30 08:52:32;;;;;;;8.68;3.45;;;18.20;90.40;;;;;;5044696;28;20562;-73
2022/04/30 08:54:59;;;;;;;6.65;3.75;;;18.40;90.00;;;;;;5036580;28;20112;-73
2022/04/30 08:57:24;;;;;;;11.20;5.30;;;18.40;88.40;;;;;;5042474;28;20025;-71
2022/04/30 08:59:51;;;;;;;10.45;3.88;;;18.50;89.20;;;;;;5033822;28;20095;-72
2022/04/30 09:02:17;;;;;;;10.63;6.47;;;18.80;89.50;;;;;;5033876;28;20060;-72
2022/04/30 09:04:48;;;;;;;9.93;6.82;;;18.70;87.80;;;;;;5042886;28;20029;-72
2022/04/30 09:07:22;;;;;;;7.05;3.63;;;19.00;89.40;;;;;;5042212;28;20033;-72
2022/04/30 09:10:00;;;;;;;9.27;3.58;;;19.00;88.80;;;;;;5031858;28;20892;-72
2022/04/30 09:12:27;;;;;;;7.38;3.40;;;19.30;88.80;;;;;;5032423;28;20472;-70
2022/04/30 09:14:54;;;;;;;7.30;3.33;;;19.50;87.40;;;;;;5033557;28;20086;-72
2022/04/30 09:17:22;;;;;;;6.55;3.38;;;19.60;86.40;;;;;;5030395;28;20032;-73
2022/04/30 09:19:56;;;;;;;6.53;3.17;;;19.70;85.70;;;;;;5032796;28;20052;-73
2022/04/30 09:22:33;;;;;;;9.63;3.70;;;20.00;85.00;;;;;;5036915;28;20041;-72
2022/04/30 09:25:00;;;;;;;5.78;3.03;;;20.10;85.30;;;;;;5041917;28;20071;-71
2022/04/30 09:27:27;;;;;;;6.25;3.00;;;20.20;83.50;;;;;;5045784;28;20052;-71
2022/04/30 09:29:53;;;;;;;6.68;4.07;;;20.00;81.20;;;;;;5043337;28;20029;-71
2022/04/30 09:32:26;;;;;;;9.98;3.25;;;19.60;81.60;;;;;;5035830;28;20524;-71
2022/04/30 09:37:43;;;;;;;9.43;3.33;;;19.90;82.80;;;;;;5049213;28;20075;-71
2022/04/30 09:40:15;;;;;;;6.20;2.80;;;20.10;80.00;;;;;;5061887;28;20033;-72
2022/04/30 09:42:41;;;;;;;5.85;2.85;;;20.40;82.00;;;;;;5047769;28;20045;-72
2022/04/30 09:45:09;;;;;;;8.85;3.03;;;20.40;80.70;;;;;;5044759;28;20051;-73
2022/04/30 09:47:35;;;;;;;5.60;3.53;;;19.90;79.10;;;;;;5054227;28;20040;-73
2022/04/30 09:55:33;;;;;;;7.45;3.65;;;19.80;79.90;;;;;;5044214;28;20039;-70
2022/04/30 09:58:03;;;;;;;11.32;3.53;;;20.10;80.10;;;;;;5051477;28;20391;-71
2022/04/30 10:00:32;;;;;;;5.30;2.97;;;19.80;79.40;;;;;;5066127;28;20090;-74
2022/04/30 10:03:01;;;;;;;6.25;3.30;;;19.80;81.20;;;;;;5049956;28;20088;-73
2022/04/30 10:05:29;;;;;;;6.80;3.38;;;19.80;78.00;;;;;;5043911;28;20146;-73
2022/04/30 10:07:55;;;;;;;12.63;5.97;;;20.30;78.40;;;;;;5046172;28;20391;-74
2022/04/30 10:10:28;;;;;;;7.50;3.05;;;20.20;77.40;;;;;;5047663;28;20067;-74
2022/04/30 10:13:09;;;;;;;10.52;5.18;;;20.60;79.70;;;;;;5049823;28;20028;-74
2022/04/30 10:15:52;;;;;;;11.52;4.70;;;21.10;75.30;;;;;;5046262;28;20039;-75
2022/04/30 10:18:19;;;;;;;12.15;4.47;;;21.20;73.10;;;;;;5033725;28;20029;-74
2022/04/30 10:20:56;;;;;;;18.38;6.80;;;21.40;72.60;;;;;;5036187;28;20096;-72
2022/04/30 10:23:22;;;;;;;7.90;3.70;;;21.50;72.50;;;;;;5046024;28;20040;-74
2022/04/30 10:25:48;;;;;;;14.38;5.97;;;21.90;72.70;;;;;;5044169;28;20040;-74
2022/04/30 10:28:17;;;;;;;18.48;10.57;;;22.00;72.30;;;;;;5041962;28;20037;-73
2022/04/30 10:30:44;;;;;;;12.32;4.18;;;22.40;72.40;;;;;;5049243;28;20040;-75
2022/04/30 10:33:10;;;;;;;13.50;6.70;;;22.00;70.10;;;;;;5045350;28;20048;-74
2022/04/30 10:35:38;;;;;;;7.65;3.50;;;21.60;70.40;;;;;;5048835;28;20084;-75
2022/04/30 10:38:12;;;;;;;11.18;4.50;;;21.90;70.70;;;;;;5048173;28;20047;-74
2022/04/30 10:40:47;;;;;;;12.32;5.03;;;22.20;69.90;;;;;;5048522;28;20036;-74
2022/04/30 10:43:31;;;;;;;5.18;2.50;;;22.00;69.60;;;;;;5046073;28;20045;-74
2022/04/30 10:46:04;;;;;;;5.65;2.92;;;22.20;72.10;;;;;;5042301;28;20025;-75
2022/04/30 10:48:32;;;;;;;6.97;2.57;;;22.50;70.60;;;;;;5047587;28;20044;-74
2022/04/30 10:51:15;;;;;;;6.30;2.40;;;22.10;69.80;;;;;;5048415;28;20303;-75
2022/04/30 10:53:41;;;;;;;6.43;2.47;;;22.30;70.60;;;;;;5044827;28;20146;-74
2022/04/30 10:56:09;;;;;;;5.97;2.40;;;22.50;72.00;;;;;;5047909;28;20096;-74
2022/04/30 10:58:39;;;;;;;3.35;2.10;;;22.20;70.60;;;;;;5048752;28;20044;-74
2022/04/30 11:01:16;;;;;;;8.73;2.38;;;22.10;72.70;;;;;;5044840;28;20077;-74
2022/04/30 11:03:44;;;;;;;5.65;2.42;;;21.90;70.80;;;;;;5045251;28;20052;-74
2022/04/30 11:06:18;;;;;;;7.07;2.50;;;21.70;71.20;;;;;;5048109;28;20033;-74
2022/04/30 11:08:43;;;;;;;;;;;21.40;71.50;;;;;;5037477;28;20052;-74
2022/04/30 11:11:09;;;;;;;3.97;2.20;;;20.80;71.70;;;;;;5047444;28;19958;-74
2022/04/30 11:13:35;;;;;;;8.90;2.55;;;20.90;72.50;;;;;;5043679;28;20562;-74
2022/04/30 11:16:00;;;;;;;6.05;2.67;;;21.10;73.00;;;;;;5047932;28;20025;-74
2022/04/30 11:18:26;;;;;;;6.40;2.33;;;21.20;72.20;;;;;;5043714;28;20033;-74
2022/04/30 11:21:02;;;;;;;5.65;2.75;;;21.20;72.20;;;;;;5048317;28;20479;-74
2022/04/30 11:23:28;;;;;;;6.20;2.47;;;20.90;72.20;;;;;;5047816;28;20037;-75
2022/04/30 11:25:54;;;;;;;6.00;2.60;;;21.20;72.00;;;;;;5047440;28;20503;-74
2022/04/30 11:28:28;;;;;;;4.53;2.28;;;21.30;72.40;;;;;;5036638;28;20053;-74
2022/04/30 11:30:58;;;;;;;6.82;2.53;;;21.10;71.20;;;;;;5040789;28;20094;-74
2022/04/30 11:33:36;;;;;;;5.55;2.72;;;21.10;71.70;;;;;;5047154;28;20437;-74
2022/04/30 11:36:02;;;;;;;3.85;2.33;;;20.90;71.00;;;;;;5046520;28;20039;-74
2022/04/30 11:38:28;;;;;;;4.20;2.38;;;21.10;73.10;;;;;;5046123;28;20043;-74
2022/04/30 11:41:04;;;;;;;9.73;2.42;;;20.60;72.20;;;;;;5047403;28;20033;-73
2022/04/30 11:43:30;;;;;;;6.20;2.63;;;20.80;72.10;;;;;;5041521;28;20144;-74
2022/04/30 11:46:00;;;;;;;9.40;2.70;;;20.70;71.60;;;;;;5041066;28;20241;-74
2022/04/30 11:48:46;;;;;;;7.00;2.03;;;20.50;72.10;;;;;;5046851;28;20061;-74
2022/04/30 11:51:12;;;;;;;7.30;2.53;;;20.50;72.10;;;;;;5045856;28;20585;-74
2022/04/30 11:53:38;;;;;;;5.68;2.97;;;20.60;72.70;;;;;;5039886;28;20033;-74
2022/04/30 11:56:05;;;;;;;4.53;2.63;;;20.60;73.30;;;;;;5046983;28;20036;-74
2022/04/30 11:58:41;;;;;;;5.07;2.90;;;20.50;73.10;;;;;;5047164;28;20029;-74
2022/04/30 12:01:19;;;;;;;5.45;2.50;;;20.60;72.90;;;;;;5045431;28;20024;-74
2022/04/30 12:03:45;;;;;;;7.25;2.58;;;20.50;73.50;;;;;;5044169;28;20037;-74
2022/04/30 12:06:10;;;;;;;5.10;2.70;;;20.60;72.70;;;;;;5037745;28;20474;-73
2022/04/30 12:08:36;;;;;;;4.82;2.53;;;20.50;72.30;;;;;;5046584;28;20029;-74
2022/04/30 12:11:02;;;;;;;4.18;2.35;;;20.40;72.90;;;;;;5042830;28;20040;-73
2022/04/30 12:13:28;;;;;;;6.97;2.60;;;20.50;72.70;;;;;;5046833;28;20025;-74
2022/04/30 12:16:05;;;;;;;4.72;2.28;;;20.50;72.60;;;;;;5046955;28;20052;-74
2022/04/30 12:27:03;;;;;;;5.28;2.58;;;20.60;72.40;;;;;;5042738;28;20052;-74
2022/04/30 12:29:30;;;;;;;6.93;2.90;;;20.70;72.50;;;;;;5046788;28;20029;-74
2022/04/30 12:31:57;;;;;;;5.88;2.20;;;20.60;72.50;;;;;;5046591;28;20395;-74
2022/04/30 12:34:27;;;;;;;4.70;2.42;;;20.60;72.50;;;;;;5045086;28;20028;-74
2022/04/30 12:36:58;;;;;;;3.92;2.20;;;20.50;72.30;;;;;;5046335;28;20029;-74
2022/04/30 12:39:24;;;;;;;9.50;3.03;;;20.60;73.20;;;;;;5040341;28;20032;-73
2022/04/30 12:41:51;;;;;;;6.35;2.17;;;20.70;72.70;;;;;;5042180;28;20045;-74
2022/04/30 12:44:17;;;;;;;5.95;2.53;;;20.40;72.30;;;;;;5043074;28;20033;-74
2022/04/30 12:46:44;;;;;;;5.90;2.42;;;20.40;72.50;;;;;;5045056;28;20043;-73
2022/04/30 12:49:13;;;;;;;7.38;2.75;;;20.30;72.70;;;;;;5045752;28;20029;-75
2022/04/30 12:51:40;;;;;;;6.15;2.55;;;20.40;72.10;;;;;;5045179;28;20041;-73
2022/04/30 12:54:07;;;;;;;4.43;2.58;;;20.40;72.40;;;;;;5046688;28;20048;-74
2022/04/30 12:56:34;;;;;;;6.28;3.10;;;20.40;73.00;;;;;;5046175;28;20029;-74
2022/04/30 12:58:59;;;;;;;5.07;3.05;;;20.30;73.20;;;;;;5054593;28;20504;-76
2022/04/30 13:01:25;;;;;;;5.18;2.53;;;20.30;73.70;;;;;;5041407;28;20132;-74
2022/04/30 13:03:51;;;;;;;7.28;3.35;;;20.30;73.50;;;;;;5046062;28;20403;-74
2022/04/30 13:06:17;;;;;;;7.78;2.40;;;20.10;73.60;;;;;;5032052;28;20041;-75
2022/04/30 13:14:11;;;;;;;5.07;2.60;;;20.20;73.40;;;;;;5046284;28;19915;-74
2022/04/30 13:16:37;;;;;;;5.20;2.65;;;20.20;73.20;;;;;;5046083;28;20033;-74
2022/04/30 13:19:04;;;;;;;5.13;2.75;;;20.10;73.00;;;;;;5041574;28;20106;-75
2022/04/30 13:21:30;;;;;;;5.30;2.53;;;20.00;73.80;;;;;;5041399;28;20029;-74
2022/04/30 13:23:56;;;;;;;4.45;2.70;;;20.20;74.40;;;;;;5050232;28;20043;-74
2022/04/30 13:26:22;;;;;;;9.07;2.80;;;20.20;74.50;;;;;;5050170;28;20389;-74
2022/04/30 13:28:48;;;;;;;5.95;3.17;;;20.20;74.60;;;;;;5044946;28;20108;-74
2022/04/30 13:31:14;;;;;;;6.70;3.00;;;20.20;73.70;;;;;;5044760;28;20116;-74